sensor_id;sensor_type;location;lat;lon;timestamp;P1;durP1;ratioP1;P2;durP2;ratioP2
84307;SDS011;74486;52.070;5.128;2024-02-26T00:01:06;5.38;;;3.30;;
84307;SDS011;74486;52.070;5.128;2024-02-26T00:03:32;5.68;;;2.65;;
84307;SDS011;74486;52.070;5.128;2024-02-26T00:05:57;3.65;;;2.95;;
84307;SDS011;74486;52.070;5.128;2024-02-26T00:08:23;6.45;;;3.22;;
84307;SDS011;74486;52.070;5.128;2024-02-26T00:10:49;5.85;;;3.25;;
84307;SDS011;74486;52.070;5.128;2024-02-26T00:13:16;3.72;;;2.60;;
84307;SDS011;74486;52.070;5.128;2024-02-26T00:15:42;5.03;;;2.78;;
84307;SDS011;74486;52.070;5.128;2024-02-26T00:18:07;5.45;;;2.78;;
84307;SDS011;74486;52.070;5.128;2024-02-26T00:20:33;3.13;;;2.63;;
84307;SDS011;74486;52.070;5.128;2024-02-26T00:22:58;5.22;;;3.13;;
84307;SDS011;74486;52.070;5.128;2024-02-26T00:25:23;5.35;;;2.92;;
84307;SDS011;74486;52.070;5.128;2024-02-26T00:27:49;3.60;;;2.90;;
84307;SDS011;74486;52.070;5.128;2024-02-26T00:30:16;4.75;;;3.15;;
84307;SDS011;74486;52.070;5.128;2024-02-26T00:32:41;4.13;;;2.70;;
84307;SDS011;74486;52.070;5.128;2024-02-26T00:35:07;5.00;;;3.15;;
84307;SDS011;74486;52.070;5.128;2024-02-26T00:37:33;5.30;;;3.05;;
84307;SDS011;74486;52.070;5.128;2024-02-26T00:39:58;4.43;;;3.28;;
84307;SDS011;74486;52.070;5.128;2024-02-26T00:42:24;5.75;;;2.80;;
84307;SDS011;74486;52.070;5.128;2024-02-26T00:44:49;6.20;;;3.10;;
84307;SDS011;74486;52.070;5.128;2024-02-26T00:47:16;5.25;;;3.17;;
84307;SDS011;74486;52.070;5.128;2024-02-26T00:49:41;4.97;;;3.03;;
84307;SDS011;74486;52.070;5.128;2024-02-26T00:52:07;4.80;;;3.22;;
84307;SDS011;74486;52.070;5.128;2024-02-26T00:54:34;5.10;;;2.88;;
84307;SDS011;74486;52.070;5.128;2024-02-26T00:56:59;5.45;;;3.33;;
84307;SDS011;74486;52.070;5.128;2024-02-26T00:59:25;5.20;;;3.75;;
84307;SDS011;74486;52.070;5.128;2024-02-26T01:01:50;5.38;;;3.63;;
84307;SDS011;74486;52.070;5.128;2024-02-26T01:04:17;6.18;;;3.08;;
84307;SDS011;74486;52.070;5.128;2024-02-26T01:06:42;5.68;;;3.45;;
84307;SDS011;74486;52.070;5.128;2024-02-26T01:09:08;5.70;;;2.90;;
84307;SDS011;74486;52.070;5.128;2024-02-26T01:11:33;5.80;;;3.60;;
84307;SDS011;74486;52.070;5.128;2024-02-26T01:13:59;4.55;;;3.22;;
84307;SDS011;74486;52.070;5.128;2024-02-26T01:16:24;7.43;;;3.83;;
84307;SDS011;74486;52.070;5.128;2024-02-26T01:18:50;5.53;;;3.53;;
84307;SDS011;74486;52.070;5.128;2024-02-26T01:21:17;4.72;;;3.20;;
84307;SDS011;74486;52.070;5.128;2024-02-26T01:23:42;5.70;;;3.47;;
84307;SDS011;74486;52.070;5.128;2024-02-26T01:26:08;6.63;;;4.03;;
84307;SDS011;74486;52.070;5.128;2024-02-26T01:28:33;4.78;;;3.67;;
84307;SDS011;74486;52.070;5.128;2024-02-26T01:30:59;4.60;;;3.40;;
84307;SDS011;74486;52.070;5.128;2024-02-26T01:33:24;5.53;;;3.65;;
84307;SDS011;74486;52.070;5.128;2024-02-26T01:35:50;4.82;;;3.65;;
84307;SDS011;74486;52.070;5.128;2024-02-26T01:38:17;4.70;;;3.60;;
84307;SDS011;74486;52.070;5.128;2024-02-26T01:40:42;6.30;;;4.25;;
84307;SDS011;74486;52.070;5.128;2024-02-26T01:43:08;6.28;;;4.28;;
84307;SDS011;74486;52.070;5.128;2024-02-26T01:45:33;5.15;;;3.70;;
84307;SDS011;74486;52.070;5.128;2024-02-26T01:47:59;5.00;;;3.88;;
84307;SDS011;74486;52.070;5.128;2024-02-26T01:50:25;6.97;;;3.60;;
84307;SDS011;74486;52.070;5.128;2024-02-26T01:52:52;6.32;;;4.07;;
84307;SDS011;74486;52.070;5.128;2024-02-26T01:55:20;5.90;;;3.90;;
84307;SDS011;74486;52.070;5.128;2024-02-26T01:57:48;5.35;;;3.90;;
84307;SDS011;74486;52.070;5.128;2024-02-26T02:00:15;5.20;;;3.65;;
84307;SDS011;74486;52.070;5.128;2024-02-26T02:02:41;6.03;;;4.13;;
84307;SDS011;74486;52.070;5.128;2024-02-26T02:05:07;6.10;;;4.13;;
84307;SDS011;74486;52.070;5.128;2024-02-26T02:07:34;6.30;;;3.88;;
84307;SDS011;74486;52.070;5.128;2024-02-26T02:10:00;5.72;;;3.70;;
84307;SDS011;74486;52.070;5.128;2024-02-26T02:12:27;6.97;;;4.20;;
84307;SDS011;74486;52.070;5.128;2024-02-26T02:14:53;5.07;;;3.83;;
84307;SDS011;74486;52.070;5.128;2024-02-26T02:17:18;5.60;;;3.92;;
84307;SDS011;74486;52.070;5.128;2024-02-26T02:19:44;5.47;;;3.78;;
84307;SDS011;74486;52.070;5.128;2024-02-26T02:22:11;5.13;;;3.67;;
84307;SDS011;74486;52.070;5.128;2024-02-26T02:24:36;6.55;;;4.13;;
84307;SDS011;74486;52.070;5.128;2024-02-26T02:27:02;5.95;;;3.67;;
84307;SDS011;74486;52.070;5.128;2024-02-26T02:29:28;6.65;;;4.32;;
84307;SDS011;74486;52.070;5.128;2024-02-26T02:31:53;9.45;;;4.20;;
84307;SDS011;74486;52.070;5.128;2024-02-26T02:34:19;6.90;;;3.78;;
84307;SDS011;74486;52.070;5.128;2024-02-26T02:36:49;7.43;;;3.80;;
84307;SDS011;74486;52.070;5.128;2024-02-26T02:39:18;5.90;;;4.25;;
84307;SDS011;74486;52.070;5.128;2024-02-26T02:41:43;8.00;;;4.82;;
84307;SDS011;74486;52.070;5.128;2024-02-26T02:44:09;6.15;;;4.57;;
84307;SDS011;74486;52.070;5.128;2024-02-26T02:46:34;5.28;;;3.78;;
84307;SDS011;74486;52.070;5.128;2024-02-26T02:49:00;8.43;;;4.70;;
84307;SDS011;74486;52.070;5.128;2024-02-26T02:51:26;5.25;;;3.60;;
84307;SDS011;74486;52.070;5.128;2024-02-26T02:53:51;5.07;;;3.95;;
84307;SDS011;74486;52.070;5.128;2024-02-26T02:56:18;6.95;;;4.20;;
84307;SDS011;74486;52.070;5.128;2024-02-26T02:58:43;8.20;;;4.60;;
84307;SDS011;74486;52.070;5.128;2024-02-26T03:01:09;6.45;;;3.78;;
84307;SDS011;74486;52.070;5.128;2024-02-26T03:03:34;6.72;;;4.20;;
84307;SDS011;74486;52.070;5.128;2024-02-26T03:06:00;7.03;;;4.38;;
84307;SDS011;74486;52.070;5.128;2024-02-26T03:08:25;7.22;;;4.18;;
84307;SDS011;74486;52.070;5.128;2024-02-26T03:10:51;5.45;;;4.05;;
84307;SDS011;74486;52.070;5.128;2024-02-26T03:13:18;8.02;;;3.95;;
84307;SDS011;74486;52.070;5.128;2024-02-26T03:15:43;7.13;;;4.60;;
84307;SDS011;74486;52.070;5.128;2024-02-26T03:18:09;7.28;;;4.10;;
84307;SDS011;74486;52.070;5.128;2024-02-26T03:20:34;6.25;;;4.53;;
84307;SDS011;74486;52.070;5.128;2024-02-26T03:23:01;7.95;;;4.72;;
84307;SDS011;74486;52.070;5.128;2024-02-26T03:25:26;6.85;;;4.95;;
84307;SDS011;74486;52.070;5.128;2024-02-26T03:27:52;7.20;;;3.97;;
84307;SDS011;74486;52.070;5.128;2024-02-26T03:30:19;6.40;;;3.95;;
84307;SDS011;74486;52.070;5.128;2024-02-26T03:32:44;6.85;;;4.15;;
84307;SDS011;74486;52.070;5.128;2024-02-26T03:35:10;6.55;;;4.38;;
84307;SDS011;74486;52.070;5.128;2024-02-26T03:37:35;8.40;;;5.10;;
84307;SDS011;74486;52.070;5.128;2024-02-26T03:40:01;7.93;;;5.05;;
84307;SDS011;74486;52.070;5.128;2024-02-26T03:42:26;7.63;;;4.82;;
84307;SDS011;74486;52.070;5.128;2024-02-26T03:44:52;8.85;;;5.13;;
84307;SDS011;74486;52.070;5.128;2024-02-26T03:47:18;9.65;;;5.15;;
84307;SDS011;74486;52.070;5.128;2024-02-26T03:49:44;8.95;;;5.55;;
84307;SDS011;74486;52.070;5.128;2024-02-26T03:52:09;8.43;;;4.82;;
84307;SDS011;74486;52.070;5.128;2024-02-26T03:54:35;9.57;;;4.95;;
84307;SDS011;74486;52.070;5.128;2024-02-26T03:57:00;8.15;;;5.45;;
84307;SDS011;74486;52.070;5.128;2024-02-26T03:59:26;9.23;;;4.80;;
84307;SDS011;74486;52.070;5.128;2024-02-26T04:01:51;10.50;;;4.97;;
84307;SDS011;74486;52.070;5.128;2024-02-26T04:04:18;10.02;;;5.07;;
84307;SDS011;74486;52.070;5.128;2024-02-26T04:06:44;9.10;;;4.75;;
84307;SDS011;74486;52.070;5.128;2024-02-26T04:09:10;9.23;;;5.70;;
84307;SDS011;74486;52.070;5.128;2024-02-26T04:11:36;9.18;;;5.32;;
84307;SDS011;74486;52.070;5.128;2024-02-26T04:14:01;8.20;;;5.32;;
84307;SDS011;74486;52.070;5.128;2024-02-26T04:16:27;7.63;;;4.85;;
84307;SDS011;74486;52.070;5.128;2024-02-26T04:18:52;10.98;;;5.80;;
84307;SDS011;74486;52.070;5.128;2024-02-26T04:21:19;10.82;;;5.65;;
84307;SDS011;74486;52.070;5.128;2024-02-26T04:23:44;8.80;;;5.63;;
84307;SDS011;74486;52.070;5.128;2024-02-26T04:26:10;9.55;;;5.97;;
84307;SDS011;74486;52.070;5.128;2024-02-26T04:28:35;8.93;;;5.00;;
84307;SDS011;74486;52.070;5.128;2024-02-26T04:31:01;10.75;;;5.90;;
84307;SDS011;74486;52.070;5.128;2024-02-26T04:33:26;10.10;;;4.88;;
84307;SDS011;74486;52.070;5.128;2024-02-26T04:35:52;10.32;;;5.38;;
84307;SDS011;74486;52.070;5.128;2024-02-26T04:38:18;10.07;;;5.78;;
84307;SDS011;74486;52.070;5.128;2024-02-26T04:40:44;9.43;;;5.43;;
84307;SDS011;74486;52.070;5.128;2024-02-26T04:43:09;8.82;;;5.43;;
84307;SDS011;74486;52.070;5.128;2024-02-26T04:45:35;8.38;;;4.95;;
84307;SDS011;74486;52.070;5.128;2024-02-26T04:48:00;10.18;;;5.47;;
84307;SDS011;74486;52.070;5.128;2024-02-26T04:50:26;11.95;;;5.13;;
84307;SDS011;74486;52.070;5.128;2024-02-26T04:52:51;11.63;;;5.75;;
84307;SDS011;74486;52.070;5.128;2024-02-26T04:55:18;9.65;;;5.32;;
84307;SDS011;74486;52.070;5.128;2024-02-26T04:57:43;9.93;;;5.75;;
84307;SDS011;74486;52.070;5.128;2024-02-26T05:00:09;10.55;;;6.55;;
84307;SDS011;74486;52.070;5.128;2024-02-26T05:02:36;10.85;;;5.97;;
84307;SDS011;74486;52.070;5.128;2024-02-26T05:05:02;11.38;;;6.63;;
84307;SDS011;74486;52.070;5.128;2024-02-26T05:07:27;11.38;;;5.75;;
84307;SDS011;74486;52.070;5.128;2024-02-26T05:09:53;10.25;;;6.30;;
84307;SDS011;74486;52.070;5.128;2024-02-26T05:12:20;11.43;;;6.38;;
84307;SDS011;74486;52.070;5.128;2024-02-26T05:14:45;12.52;;;6.15;;
84307;SDS011;74486;52.070;5.128;2024-02-26T05:17:10;10.68;;;6.10;;
84307;SDS011;74486;52.070;5.128;2024-02-26T05:19:36;13.35;;;7.13;;
84307;SDS011;74486;52.070;5.128;2024-02-26T05:22:01;16.10;;;7.55;;
84307;SDS011;74486;52.070;5.128;2024-02-26T05:24:27;14.05;;;7.55;;
84307;SDS011;74486;52.070;5.128;2024-02-26T05:26:53;14.32;;;7.70;;
84307;SDS011;74486;52.070;5.128;2024-02-26T05:29:20;12.68;;;6.80;;
84307;SDS011;74486;52.070;5.128;2024-02-26T05:31:45;12.35;;;7.32;;
84307;SDS011;74486;52.070;5.128;2024-02-26T05:34:11;13.65;;;7.93;;
84307;SDS011;74486;52.070;5.128;2024-02-26T05:36:37;15.88;;;7.30;;
84307;SDS011;74486;52.070;5.128;2024-02-26T05:39:02;14.05;;;7.60;;
84307;SDS011;74486;52.070;5.128;2024-02-26T05:41:28;15.35;;;7.35;;
84307;SDS011;74486;52.070;5.128;2024-02-26T05:43:53;12.30;;;6.60;;
84307;SDS011;74486;52.070;5.128;2024-02-26T05:46:20;14.05;;;7.80;;
84307;SDS011;74486;52.070;5.128;2024-02-26T05:48:46;14.48;;;8.05;;
84307;SDS011;74486;52.070;5.128;2024-02-26T05:51:13;14.35;;;8.38;;
84307;SDS011;74486;52.070;5.128;2024-02-26T05:53:40;16.30;;;8.10;;
84307;SDS011;74486;52.070;5.128;2024-02-26T05:56:06;15.98;;;8.23;;
84307;SDS011;74486;52.070;5.128;2024-02-26T05:58:31;11.30;;;6.63;;
84307;SDS011;74486;52.070;5.128;2024-02-26T06:00:57;14.90;;;7.13;;
84307;SDS011;74486;52.070;5.128;2024-02-26T06:03:24;14.38;;;7.45;;
84307;SDS011;74486;52.070;5.128;2024-02-26T06:05:49;11.85;;;6.60;;
84307;SDS011;74486;52.070;5.128;2024-02-26T06:08:15;13.30;;;7.68;;
84307;SDS011;74486;52.070;5.128;2024-02-26T06:10:40;15.73;;;7.43;;
84307;SDS011;74486;52.070;5.128;2024-02-26T06:13:05;16.17;;;7.45;;
84307;SDS011;74486;52.070;5.128;2024-02-26T06:15:31;15.15;;;7.47;;
84307;SDS011;74486;52.070;5.128;2024-02-26T06:17:56;18.35;;;7.55;;
84307;SDS011;74486;52.070;5.128;2024-02-26T06:20:23;13.38;;;7.38;;
84307;SDS011;74486;52.070;5.128;2024-02-26T06:22:49;14.55;;;7.18;;
84307;SDS011;74486;52.070;5.128;2024-02-26T06:25:14;14.57;;;7.40;;
84307;SDS011;74486;52.070;5.128;2024-02-26T06:27:40;17.80;;;8.23;;
84307;SDS011;74486;52.070;5.128;2024-02-26T06:30:06;14.13;;;7.93;;
84307;SDS011;74486;52.070;5.128;2024-02-26T06:32:32;18.15;;;8.13;;
84307;SDS011;74486;52.070;5.128;2024-02-26T06:34:57;17.73;;;7.95;;
84307;SDS011;74486;52.070;5.128;2024-02-26T06:37:24;15.65;;;7.90;;
84307;SDS011;74486;52.070;5.128;2024-02-26T06:39:50;17.95;;;8.35;;
84307;SDS011;74486;52.070;5.128;2024-02-26T06:42:15;15.88;;;7.55;;
84307;SDS011;74486;52.070;5.128;2024-02-26T06:44:40;18.35;;;8.38;;
84307;SDS011;74486;52.070;5.128;2024-02-26T06:47:06;20.23;;;9.23;;
84307;SDS011;74486;52.070;5.128;2024-02-26T06:49:31;19.13;;;8.57;;
84307;SDS011;74486;52.070;5.128;2024-02-26T06:51:57;20.90;;;8.88;;
84307;SDS011;74486;52.070;5.128;2024-02-26T06:54:24;21.92;;;10.50;;
84307;SDS011;74486;52.070;5.128;2024-02-26T06:56:49;22.40;;;8.48;;
84307;SDS011;74486;52.070;5.128;2024-02-26T06:59:15;23.58;;;10.45;;
84307;SDS011;74486;52.070;5.128;2024-02-26T07:01:41;20.67;;;9.40;;
84307;SDS011;74486;52.070;5.128;2024-02-26T07:04:06;22.55;;;10.88;;
84307;SDS011;74486;52.070;5.128;2024-02-26T07:06:32;25.08;;;10.50;;
84307;SDS011;74486;52.070;5.128;2024-02-26T07:08:58;23.90;;;11.65;;
84307;SDS011;74486;52.070;5.128;2024-02-26T07:11:24;24.10;;;11.27;;
84307;SDS011;74486;52.070;5.128;2024-02-26T07:13:50;24.75;;;11.32;;
84307;SDS011;74486;52.070;5.128;2024-02-26T07:16:17;27.58;;;11.77;;
84307;SDS011;74486;52.070;5.128;2024-02-26T07:18:42;27.08;;;12.05;;
84307;SDS011;74486;52.070;5.128;2024-02-26T07:21:08;29.02;;;12.73;;
84307;SDS011;74486;52.070;5.128;2024-02-26T07:23:33;30.52;;;12.40;;
84307;SDS011;74486;52.070;5.128;2024-02-26T07:25:59;30.67;;;13.20;;
84307;SDS011;74486;52.070;5.128;2024-02-26T07:28:26;34.92;;;13.90;;
84307;SDS011;74486;52.070;5.128;2024-02-26T07:30:51;32.50;;;13.20;;
84307;SDS011;74486;52.070;5.128;2024-02-26T07:33:17;29.13;;;13.95;;
84307;SDS011;74486;52.070;5.128;2024-02-26T07:35:42;31.40;;;13.98;;
84307;SDS011;74486;52.070;5.128;2024-02-26T07:38:08;33.15;;;14.00;;
84307;SDS011;74486;52.070;5.128;2024-02-26T07:40:33;29.17;;;14.73;;
84307;SDS011;74486;52.070;5.128;2024-02-26T07:42:59;34.42;;;14.95;;
84307;SDS011;74486;52.070;5.128;2024-02-26T07:45:26;34.47;;;14.40;;
84307;SDS011;74486;52.070;5.128;2024-02-26T07:47:51;33.15;;;13.77;;
84307;SDS011;74486;52.070;5.128;2024-02-26T07:50:17;36.08;;;15.10;;
84307;SDS011;74486;52.070;5.128;2024-02-26T07:52:42;31.05;;;14.45;;
84307;SDS011;74486;52.070;5.128;2024-02-26T07:55:08;31.88;;;14.80;;
84307;SDS011;74486;52.070;5.128;2024-02-26T07:57:33;33.50;;;13.98;;
84307;SDS011;74486;52.070;5.128;2024-02-26T07:59:59;32.25;;;14.27;;
84307;SDS011;74486;52.070;5.128;2024-02-26T08:02:26;30.40;;;13.80;;
84307;SDS011;74486;52.070;5.128;2024-02-26T08:04:52;28.52;;;12.85;;
84307;SDS011;74486;52.070;5.128;2024-02-26T08:07:17;25.95;;;12.55;;
84307;SDS011;74486;52.070;5.128;2024-02-26T08:09:43;28.90;;;14.05;;
84307;SDS011;74486;52.070;5.128;2024-02-26T08:12:08;29.88;;;12.50;;
84307;SDS011;74486;52.070;5.128;2024-02-26T08:14:34;26.10;;;12.00;;
84307;SDS011;74486;52.070;5.128;2024-02-26T08:16:59;24.98;;;12.75;;
84307;SDS011;74486;52.070;5.128;2024-02-26T08:19:26;22.20;;;11.30;;
84307;SDS011;74486;52.070;5.128;2024-02-26T08:21:52;24.42;;;12.20;;
84307;SDS011;74486;52.070;5.128;2024-02-26T08:24:17;22.60;;;11.07;;
84307;SDS011;74486;52.070;5.128;2024-02-26T08:26:43;23.92;;;11.55;;
84307;SDS011;74486;52.070;5.128;2024-02-26T08:29:08;23.27;;;10.68;;
84307;SDS011;74486;52.070;5.128;2024-02-26T08:31:34;21.60;;;10.75;;
84307;SDS011;74486;52.070;5.128;2024-02-26T08:33:59;21.00;;;9.35;;
84307;SDS011;74486;52.070;5.128;2024-02-26T08:36:26;18.20;;;8.88;;
84307;SDS011;74486;52.070;5.128;2024-02-26T08:38:52;19.00;;;10.30;;
84307;SDS011;74486;52.070;5.128;2024-02-26T08:41:17;18.15;;;8.73;;
84307;SDS011;74486;52.070;5.128;2024-02-26T08:43:43;17.58;;;9.13;;
84307;SDS011;74486;52.070;5.128;2024-02-26T08:46:08;17.15;;;9.27;;
84307;SDS011;74486;52.070;5.128;2024-02-26T08:48:34;16.55;;;8.52;;
84307;SDS011;74486;52.070;5.128;2024-02-26T08:51:00;16.50;;;8.35;;
84307;SDS011;74486;52.070;5.128;2024-02-26T08:53:30;12.43;;;7.20;;
84307;SDS011;74486;52.070;5.128;2024-02-26T08:55:56;16.60;;;9.18;;
84307;SDS011;74486;52.070;5.128;2024-02-26T08:58:21;17.73;;;7.75;;
84307;SDS011;74486;52.070;5.128;2024-02-26T09:00:47;16.25;;;8.73;;
84307;SDS011;74486;52.070;5.128;2024-02-26T09:03:12;13.88;;;8.02;;
84307;SDS011;74486;52.070;5.128;2024-02-26T09:05:38;14.57;;;7.32;;
84307;SDS011;74486;52.070;5.128;2024-02-26T09:08:04;12.93;;;6.70;;
84307;SDS011;74486;52.070;5.128;2024-02-26T09:10:31;15.75;;;7.70;;
84307;SDS011;74486;52.070;5.128;2024-02-26T09:12:57;11.77;;;6.43;;
84307;SDS011;74486;52.070;5.128;2024-02-26T09:15:22;12.77;;;6.78;;
84307;SDS011;74486;52.070;5.128;2024-02-26T09:17:48;12.80;;;7.38;;
84307;SDS011;74486;52.070;5.128;2024-02-26T09:20:13;11.95;;;6.47;;
84307;SDS011;74486;52.070;5.128;2024-02-26T09:22:39;13.85;;;6.57;;
84307;SDS011;74486;52.070;5.128;2024-02-26T09:25:05;12.02;;;6.57;;
84307;SDS011;74486;52.070;5.128;2024-02-26T09:27:32;13.32;;;6.85;;
84307;SDS011;74486;52.070;5.128;2024-02-26T09:29:57;13.27;;;6.72;;
84307;SDS011;74486;52.070;5.128;2024-02-26T09:32:23;12.07;;;6.32;;
84307;SDS011;74486;52.070;5.128;2024-02-26T09:34:48;10.05;;;6.22;;
84307;SDS011;74486;52.070;5.128;2024-02-26T09:37:13;10.27;;;5.47;;
84307;SDS011;74486;52.070;5.128;2024-02-26T09:39:39;12.45;;;6.63;;
84307;SDS011;74486;52.070;5.128;2024-02-26T09:42:04;10.30;;;5.75;;
84307;SDS011;74486;52.070;5.128;2024-02-26T09:44:31;11.77;;;5.25;;
84307;SDS011;74486;52.070;5.128;2024-02-26T09:47:01;11.70;;;5.60;;
84307;SDS011;74486;52.070;5.128;2024-02-26T09:49:26;10.63;;;4.90;;
84307;SDS011;74486;52.070;5.128;2024-02-26T09:51:52;13.23;;;6.45;;
84307;SDS011;74486;52.070;5.128;2024-02-26T09:54:19;11.38;;;5.40;;
84307;SDS011;74486;52.070;5.128;2024-02-26T09:56:45;9.98;;;5.20;;
84307;SDS011;74486;52.070;5.128;2024-02-26T10:01:42;11.65;;;5.72;;
84307;SDS011;74486;52.070;5.128;2024-02-26T10:04:09;10.85;;;4.57;;
84307;SDS011;74486;52.070;5.128;2024-02-26T10:06:36;9.60;;;5.68;;
84307;SDS011;74486;52.070;5.128;2024-02-26T10:09:02;9.88;;;5.25;;
84307;SDS011;74486;52.070;5.128;2024-02-26T10:11:28;9.60;;;5.38;;
84307;SDS011;74486;52.070;5.128;2024-02-26T10:13:54;12.77;;;5.53;;
84307;SDS011;74486;52.070;5.128;2024-02-26T10:16:19;10.70;;;5.47;;
84307;SDS011;74486;52.070;5.128;2024-02-26T10:18:46;8.90;;;4.53;;
84307;SDS011;74486;52.070;5.128;2024-02-26T10:21:12;10.02;;;5.43;;
84307;SDS011;74486;52.070;5.128;2024-02-26T10:23:38;9.82;;;5.28;;
84307;SDS011;74486;52.070;5.128;2024-02-26T10:26:03;12.10;;;5.72;;
84307;SDS011;74486;52.070;5.128;2024-02-26T10:28:30;14.45;;;6.30;;
84307;SDS011;74486;52.070;5.128;2024-02-26T10:30:55;10.02;;;5.30;;
84307;SDS011;74486;52.070;5.128;2024-02-26T10:33:21;13.00;;;5.85;;
84307;SDS011;74486;52.070;5.128;2024-02-26T10:35:48;11.02;;;5.00;;
84307;SDS011;74486;52.070;5.128;2024-02-26T10:38:14;9.20;;;5.05;;
84307;SDS011;74486;52.070;5.128;2024-02-26T10:40:40;11.10;;;6.10;;
84307;SDS011;74486;52.070;5.128;2024-02-26T10:43:05;9.50;;;5.15;;
84307;SDS011;74486;52.070;5.128;2024-02-26T10:45:31;8.85;;;5.20;;
84307;SDS011;74486;52.070;5.128;2024-02-26T10:47:57;10.68;;;5.60;;
84307;SDS011;74486;52.070;5.128;2024-02-26T10:50:23;10.40;;;5.50;;
84307;SDS011;74486;52.070;5.128;2024-02-26T10:52:50;9.40;;;5.50;;
84307;SDS011;74486;52.070;5.128;2024-02-26T10:55:17;13.65;;;6.03;;
84307;SDS011;74486;52.070;5.128;2024-02-26T10:57:42;10.93;;;5.60;;
84307;SDS011;74486;52.070;5.128;2024-02-26T11:00:10;11.23;;;5.70;;
84307;SDS011;74486;52.070;5.128;2024-02-26T11:02:39;10.60;;;5.65;;
84307;SDS011;74486;52.070;5.128;2024-02-26T11:05:06;11.15;;;5.80;;
84307;SDS011;74486;52.070;5.128;2024-02-26T11:07:32;11.02;;;6.22;;
84307;SDS011;74486;52.070;5.128;2024-02-26T11:10:02;10.50;;;5.65;;
84307;SDS011;74486;52.070;5.128;2024-02-26T11:12:29;9.18;;;5.15;;
84307;SDS011;74486;52.070;5.128;2024-02-26T11:14:56;9.75;;;5.68;;
84307;SDS011;74486;52.070;5.128;2024-02-26T11:17:23;9.98;;;5.35;;
84307;SDS011;74486;52.070;5.128;2024-02-26T11:19:51;7.93;;;5.00;;
84307;SDS011;74486;52.070;5.128;2024-02-26T11:22:17;12.40;;;5.47;;
84307;SDS011;74486;52.070;5.128;2024-02-26T11:24:43;12.00;;;5.80;;
84307;SDS011;74486;52.070;5.128;2024-02-26T11:27:10;10.48;;;5.45;;
84307;SDS011;74486;52.070;5.128;2024-02-26T11:29:38;10.07;;;5.80;;
84307;SDS011;74486;52.070;5.128;2024-02-26T11:32:05;11.80;;;5.93;;
84307;SDS011;74486;52.070;5.128;2024-02-26T11:34:31;9.70;;;4.88;;
84307;SDS011;74486;52.070;5.128;2024-02-26T11:36:57;10.10;;;5.57;;
84307;SDS011;74486;52.070;5.128;2024-02-26T11:39:34;11.02;;;5.82;;
84307;SDS011;74486;52.070;5.128;2024-02-26T11:42:04;10.55;;;5.20;;
84307;SDS011;74486;52.070;5.128;2024-02-26T11:44:32;8.27;;;4.53;;
84307;SDS011;74486;52.070;5.128;2024-02-26T11:46:57;10.00;;;5.47;;
84307;SDS011;74486;52.070;5.128;2024-02-26T11:49:29;9.80;;;4.97;;
84307;SDS011;74486;52.070;5.128;2024-02-26T11:51:56;10.23;;;5.63;;
84307;SDS011;74486;52.070;5.128;2024-02-26T11:57:28;11.45;;;5.80;;
84307;SDS011;74486;52.070;5.128;2024-02-26T11:59:57;10.73;;;5.88;;
84307;SDS011;74486;52.070;5.128;2024-02-26T12:02:40;11.30;;;5.43;;
84307;SDS011;74486;52.070;5.128;2024-02-26T12:05:09;8.32;;;4.93;;
84307;SDS011;74486;52.070;5.128;2024-02-26T12:07:36;12.23;;;5.63;;
84307;SDS011;74486;52.070;5.128;2024-02-26T12:12:47;10.50;;;5.88;;
84307;SDS011;74486;52.070;5.128;2024-02-26T12:15:16;12.15;;;5.93;;
84307;SDS011;74486;52.070;5.128;2024-02-26T12:17:41;9.80;;;5.70;;
84307;SDS011;74486;52.070;5.128;2024-02-26T12:20:13;9.45;;;5.25;;
84307;SDS011;74486;52.070;5.128;2024-02-26T12:22:39;11.10;;;5.22;;
84307;SDS011;74486;52.070;5.128;2024-02-26T12:25:05;12.75;;;6.20;;
84307;SDS011;74486;52.070;5.128;2024-02-26T12:27:31;10.98;;;5.57;;
84307;SDS011;74486;52.070;5.128;2024-02-26T12:29:57;8.75;;;5.63;;
84307;SDS011;74486;52.070;5.128;2024-02-26T12:32:23;9.15;;;5.45;;
84307;SDS011;74486;52.070;5.128;2024-02-26T12:34:49;10.20;;;4.97;;
84307;SDS011;74486;52.070;5.128;2024-02-26T12:37:15;10.88;;;4.80;;
84307;SDS011;74486;52.070;5.128;2024-02-26T12:39:40;8.68;;;4.57;;
84307;SDS011;74486;52.070;5.128;2024-02-26T12:42:06;10.23;;;5.47;;
84307;SDS011;74486;52.070;5.128;2024-02-26T12:44:32;7.80;;;4.55;;
84307;SDS011;74486;52.070;5.128;2024-02-26T12:47:01;9.57;;;5.32;;
84307;SDS011;74486;52.070;5.128;2024-02-26T12:49:28;11.60;;;5.75;;
84307;SDS011;74486;52.070;5.128;2024-02-26T12:51:53;8.52;;;4.60;;
84307;SDS011;74486;52.070;5.128;2024-02-26T12:54:19;9.13;;;5.00;;
84307;SDS011;74486;52.070;5.128;2024-02-26T12:56:44;9.00;;;4.90;;
84307;SDS011;74486;52.070;5.128;2024-02-26T12:59:10;7.50;;;4.70;;
84307;SDS011;74486;52.070;5.128;2024-02-26T13:01:36;8.63;;;5.05;;
84307;SDS011;74486;52.070;5.128;2024-02-26T13:04:02;9.57;;;4.82;;
84307;SDS011;74486;52.070;5.128;2024-02-26T13:06:29;9.57;;;5.72;;
84307;SDS011;74486;52.070;5.128;2024-02-26T13:08:56;7.80;;;4.20;;
84307;SDS011;74486;52.070;5.128;2024-02-26T13:11:22;10.05;;;4.72;;
84307;SDS011;74486;52.070;5.128;2024-02-26T13:13:48;8.27;;;5.25;;
84307;SDS011;74486;52.070;5.128;2024-02-26T13:16:14;8.15;;;4.97;;
84307;SDS011;74486;52.070;5.128;2024-02-26T13:18:40;10.40;;;5.15;;
84307;SDS011;74486;52.070;5.128;2024-02-26T13:21:09;8.18;;;4.47;;
84307;SDS011;74486;52.070;5.128;2024-02-26T13:23:37;9.57;;;4.93;;
84307;SDS011;74486;52.070;5.128;2024-02-26T13:26:03;8.20;;;4.68;;
84307;SDS011;74486;52.070;5.128;2024-02-26T13:28:29;8.50;;;4.38;;
84307;SDS011;74486;52.070;5.128;2024-02-26T13:30:55;8.57;;;4.75;;
84307;SDS011;74486;52.070;5.128;2024-02-26T13:33:21;7.75;;;4.25;;
84307;SDS011;74486;52.070;5.128;2024-02-26T13:35:47;8.52;;;4.90;;
84307;SDS011;74486;52.070;5.128;2024-02-26T13:38:13;8.15;;;4.22;;
84307;SDS011;74486;52.070;5.128;2024-02-26T13:40:40;7.30;;;3.85;;
84307;SDS011;74486;52.070;5.128;2024-02-26T13:43:06;9.60;;;5.10;;
84307;SDS011;74486;52.070;5.128;2024-02-26T13:45:33;8.48;;;3.90;;
84307;SDS011;74486;52.070;5.128;2024-02-26T13:48:01;7.63;;;4.38;;
84307;SDS011;74486;52.070;5.128;2024-02-26T13:50:27;11.20;;;5.45;;
84307;SDS011;74486;52.070;5.128;2024-02-26T13:52:52;7.20;;;4.32;;
84307;SDS011;74486;52.070;5.128;2024-02-26T13:55:18;8.02;;;4.60;;
84307;SDS011;74486;52.070;5.128;2024-02-26T13:57:45;7.90;;;4.22;;
84307;SDS011;74486;52.070;5.128;2024-02-26T14:00:11;7.70;;;4.65;;
84307;SDS011;74486;52.070;5.128;2024-02-26T14:02:37;7.70;;;4.80;;
84307;SDS011;74486;52.070;5.128;2024-02-26T14:05:03;8.05;;;4.57;;
84307;SDS011;74486;52.070;5.128;2024-02-26T14:07:28;7.50;;;4.85;;
84307;SDS011;74486;52.070;5.128;2024-02-26T14:09:54;10.95;;;4.63;;
84307;SDS011;74486;52.070;5.128;2024-02-26T14:12:19;8.40;;;4.70;;
84307;SDS011;74486;52.070;5.128;2024-02-26T14:14:46;8.85;;;4.53;;
84307;SDS011;74486;52.070;5.128;2024-02-26T14:17:12;7.45;;;4.28;;
84307;SDS011;74486;52.070;5.128;2024-02-26T14:19:37;6.15;;;3.83;;
84307;SDS011;74486;52.070;5.128;2024-02-26T14:22:03;6.32;;;4.07;;
84307;SDS011;74486;52.070;5.128;2024-02-26T14:24:28;6.93;;;3.95;;
84307;SDS011;74486;52.070;5.128;2024-02-26T14:26:54;5.60;;;4.10;;
84307;SDS011;74486;52.070;5.128;2024-02-26T14:29:19;6.75;;;4.75;;
84307;SDS011;74486;52.070;5.128;2024-02-26T14:31:46;6.32;;;3.65;;
84307;SDS011;74486;52.070;5.128;2024-02-26T14:34:12;6.60;;;4.03;;
84307;SDS011;74486;52.070;5.128;2024-02-26T14:36:37;6.90;;;3.88;;
84307;SDS011;74486;52.070;5.128;2024-02-26T14:39:03;7.03;;;3.70;;
84307;SDS011;74486;52.070;5.128;2024-02-26T14:41:28;6.40;;;3.58;;